createdAt,value
2023-02-19T00:04:46.288Z,113
2023-02-19T00:05:56.401Z,113
2023-02-19T00:08:20.081Z,123
2023-02-19T00:10:27.455Z,112
2023-02-19T00:12:21.708Z,115
2023-02-19T00:14:01.277Z,121
2023-02-19T00:15:12.627Z,113
2023-02-19T00:17:08.084Z,109
2023-02-19T00:18:21.680Z,107
2023-02-19T00:20:36.253Z,104
2023-02-19T00:22:31.406Z,110
2023-02-19T00:28:23.535Z,109
2023-02-19T00:29:52.969Z,111
2023-02-19T00:33:58.878Z,114
2023-02-19T00:35:06.109Z,113
2023-02-19T00:36:27.373Z,113
2023-02-19T00:37:34.665Z,119
2023-02-19T00:40:23.113Z,111
2023-02-19T00:42:26.705Z,121
2023-02-19T00:45:13.680Z,117
2023-02-19T00:50:52.687Z,109
2023-02-19T00:52:33.354Z,117
2023-02-19T00:57:33.840Z,116
2023-02-19T00:59:02.648Z,114
2023-02-19T01:03:50.478Z,116
2023-02-19T01:06:03.425Z,119
2023-02-19T01:07:13.097Z,121
2023-02-19T01:10:27.209Z,118
2023-02-19T01:12:42.813Z,115
2023-02-19T01:21:18.221Z,114
2023-02-19T01:24:37.225Z,114
2023-02-19T01:27:40.656Z,119
2023-02-19T01:29:43.502Z,114
2023-02-19T01:32:46.746Z,113
2023-02-19T01:34:02.545Z,126
2023-02-19T01:38:53.347Z,108
2023-02-19T01:42:30.698Z,110
2023-02-19T01:46:21.379Z,118
2023-02-19T01:49:06.680Z,104
2023-02-19T01:55:08.240Z,117
2023-02-19T01:57:21.347Z,114
2023-02-19T01:58:45.360Z,113
2023-02-19T02:01:42.184Z,126
2023-02-19T02:07:47.415Z,112
2023-02-19T02:09:03.769Z,106
2023-02-19T02:10:45.033Z,113
2023-02-19T02:17:05.908Z,108
2023-02-19T02:19:14.892Z,107
2023-02-19T02:21:52.767Z,105
2023-02-19T02:24:01.009Z,107
2023-02-19T02:26:17.685Z,107
2023-02-19T02:28:56.834Z,110
2023-02-19T02:30:14.398Z,102
2023-02-19T02:31:39.177Z,109
2023-02-19T02:33:57.413Z,104
2023-02-19T02:36:05.626Z,104
2023-02-19T02:39:30.267Z,112
2023-02-19T02:40:59.471Z,108
2023-02-19T02:43:29.191Z,116
2023-02-19T02:44:54.506Z,111
2023-02-19T02:47:12.248Z,108
2023-02-19T02:48:19.733Z,109
2023-02-19T02:52:25.067Z,107
2023-02-19T02:54:29.913Z,114
2023-02-19T02:59:31.546Z,113
2023-02-19T03:03:47.335Z,113
2023-02-19T03:05:34.566Z,116
2023-02-19T03:08:25.261Z,118
2023-02-19T03:09:47.681Z,118
2023-02-19T03:12:21.444Z,128
2023-02-19T03:14:50.818Z,132
2023-02-19T03:17:14.665Z,111
2023-02-19T03:18:35.034Z,105
2023-02-19T03:21:28.982Z,97
2023-02-19T03:26:25.992Z,82
2023-02-19T03:29:59.705Z,89
2023-02-19T03:31:20.980Z,83
2023-02-19T03:35:06.519Z,86
2023-02-19T03:36:18.748Z,87
2023-02-19T03:39:28.756Z,87
2023-02-19T03:44:55.176Z,90
2023-02-19T03:46:26.140Z,98
2023-02-19T03:48:08.087Z,96
2023-02-19T03:51:03.592Z,94
2023-02-19T03:55:09.502Z,97
2023-02-19T03:58:50.921Z,106
2023-02-19T04:00:12.087Z,105
2023-02-19T04:02:28.258Z,99
2023-02-19T04:04:30.264Z,107
2023-02-19T04:10:34.418Z,100
2023-02-19T04:12:48.010Z,105
2023-02-19T04:16:32.623Z,93
2023-02-19T04:20:20.925Z,92
2023-02-19T04:23:03.546Z,97
2023-02-19T04:27:50.589Z,99
2023-02-19T04:31:20.628Z,102
2023-02-19T04:33:18.178Z,101
2023-02-19T04:36:54.969Z,99
2023-02-19T04:40:42.794Z,85
2023-02-19T04:44:48.781Z,99
2023-02-19T04:48:15.030Z,108
2023-02-19T04:50:22.623Z,110
2023-02-19T04:57:36.163Z,103
2023-02-19T05:00:07.395Z,104
2023-02-19T05:03:50.522Z,98
2023-02-19T05:07:29.083Z,93
2023-02-19T05:10:07.852Z,93
2023-02-19T05:16:36.576Z,92
2023-02-19T05:18:48.908Z,104
2023-02-19T05:22:12.003Z,97
2023-02-19T05:24:09.265Z,98
2023-02-19T05:26:53.287Z,93
2023-02-19T05:29:12.647Z,95
2023-02-19T05:31:52.358Z,96
2023-02-19T05:34:32.297Z,85
2023-02-19T05:35:43.207Z,91
2023-02-19T05:36:51.973Z,96
2023-02-19T05:45:49.285Z,104
2023-02-19T05:50:28.371Z,113
2023-02-19T05:52:42.075Z,110
2023-02-19T05:54:20.871Z,99
2023-02-19T05:56:48.478Z,107
2023-02-19T06:00:34.309Z,104
2023-02-19T06:05:01.780Z,96
2023-02-19T06:08:34.391Z,87
2023-02-19T06:12:45.099Z,82
2023-02-19T06:14:31.708Z,94
2023-02-19T06:15:38.823Z,73
2023-02-19T06:17:27.845Z,90
2023-02-19T06:19:31.637Z,68
2023-02-19T06:20:42.919Z,74
2023-02-19T06:24:48.816Z,80
2023-02-19T06:34:49.582Z,65
2023-02-19T06:37:38.715Z,67
2023-02-19T06:38:46.263Z,69
2023-02-19T06:40:17.496Z,74
2023-02-19T06:47:30.100Z,73
2023-02-19T06:49:59.344Z,86
2023-02-19T06:54:40.307Z,97
2023-02-19T06:56:55.538Z,94
2023-02-19T07:04:16.475Z,113
2023-02-19T07:07:22.586Z,126
2023-02-19T07:10:47.305Z,113
2023-02-19T07:14:32.399Z,109
2023-02-19T07:22:03.234Z,105
2023-02-19T07:23:18.320Z,118
2023-02-19T07:24:31.082Z,116
2023-02-19T07:26:53.194Z,117
2023-02-19T07:28:50.831Z,108
2023-02-19T07:30:03.318Z,98
2023-02-19T07:31:15.477Z,100
2023-02-19T07:32:23.415Z,123
2023-02-19T07:34:07.436Z,101
2023-02-19T07:35:52.303Z,112
2023-02-19T07:37:43.309Z,129
2023-02-19T07:39:48.212Z,107
2023-02-19T07:41:17.961Z,116
2023-02-19T07:42:26.564Z,115
2023-02-19T07:44:56.266Z,104
2023-02-19T07:46:08.192Z,109
2023-02-19T07:49:13.283Z,92
2023-02-19T07:50:30.475Z,99
2023-02-19T07:53:18.106Z,84
2023-02-19T07:55:19.208Z,89
2023-02-19T07:57:30.759Z,86
2023-02-19T08:00:07.996Z,80
2023-02-19T08:02:23.199Z,85
2023-02-19T08:03:40.460Z,86
2023-02-19T08:05:11.912Z,83
2023-02-19T08:07:12.008Z,104
2023-02-19T08:08:21.856Z,78
2023-02-19T08:10:13.917Z,93
2023-02-19T08:11:44.104Z,91
2023-02-19T08:12:59.823Z,97
2023-02-19T08:14:45.331Z,101
2023-02-19T08:16:33.436Z,97
2023-02-19T08:17:52.429Z,107
2023-02-19T08:20:52.916Z,105
2023-02-19T08:25:21.109Z,105
2023-02-19T08:28:59.658Z,114
2023-02-19T08:30:45.969Z,111
2023-02-19T08:32:49.878Z,116
2023-02-19T08:34:53.192Z,105
2023-02-19T08:37:22.661Z,104
2023-02-19T08:42:28.948Z,106
2023-02-19T08:43:50.454Z,108
2023-02-19T08:45:02.204Z,106
2023-02-19T08:46:58.048Z,105
2023-02-19T08:48:36.311Z,98
2023-02-19T08:49:48.976Z,102
2023-02-19T08:53:03.191Z,118
2023-02-19T08:56:08.970Z,131
2023-02-19T08:58:40.685Z,127
2023-02-19T09:01:25.377Z,103
2023-02-19T09:08:40.382Z,88
2023-02-19T09:13:00.792Z,84
2023-02-19T09:15:06.057Z,95
2023-02-19T09:16:14.394Z,87
2023-02-19T09:19:59.531Z,87
2023-02-19T09:21:42.709Z,90
2023-02-19T09:22:59.685Z,94
2023-02-19T09:24:10.203Z,103
2023-02-19T09:27:22.002Z,93
2023-02-19T09:28:45.027Z,93
2023-02-19T09:30:07.088Z,87
2023-02-19T09:31:46.772Z,83
2023-02-19T09:35:30.908Z,85
2023-02-19T09:37:17.113Z,81
2023-02-19T09:38:28.931Z,83
2023-02-19T09:40:01.897Z,69
2023-02-19T09:42:19.238Z,57
2023-02-19T09:43:40.503Z,61
2023-02-19T09:46:45.214Z,59
2023-02-19T09:49:06.697Z,60
2023-02-19T09:50:52.026Z,60
2023-02-19T09:52:56.241Z,61
2023-02-19T09:54:43.233Z,59
2023-02-19T09:58:04.088Z,45
2023-02-19T10:01:06.424Z,54
2023-02-19T10:05:08.757Z,69
2023-02-19T10:06:34.132Z,46
2023-02-19T10:10:23.786Z,61
2023-02-19T10:13:56.881Z,44
2023-02-19T10:15:27.328Z,46
2023-02-19T10:17:02.645Z,67
2023-02-19T10:18:11.279Z,49
2023-02-19T10:19:17.451Z,60
2023-02-19T10:20:31.348Z,48
2023-02-19T10:23:51.038Z,66
2023-02-19T10:25:17.414Z,47
2023-02-19T10:26:25.942Z,43
2023-02-19T10:27:41.128Z,45
2023-02-19T10:28:57.164Z,49
2023-02-19T10:30:56.899Z,61
2023-02-19T10:34:36.048Z,51
2023-02-19T10:36:01.054Z,55
2023-02-19T10:37:22.559Z,54
2023-02-19T10:39:42.381Z,48
2023-02-19T10:43:47.245Z,42
2023-02-19T10:45:02.542Z,50
2023-02-19T10:48:15.123Z,33
2023-02-19T10:50:47.584Z,53
2023-02-19T10:53:15.994Z,59
2023-02-19T10:57:27.947Z,77
2023-02-19T11:00:56.673Z,74
2023-02-19T11:04:32.968Z,75
2023-02-19T11:11:42.718Z,68
2023-02-19T11:16:31.541Z,72
2023-02-19T11:18:22.211Z,51
2023-02-19T11:33:03.111Z,39
2023-02-19T11:35:33.797Z,48
2023-02-19T11:37:28.067Z,26
2023-02-19T11:44:01.620Z,35
2023-02-19T11:46:03.506Z,44
2023-02-19T11:47:40.556Z,39
2023-02-19T11:50:52.573Z,37
2023-02-19T11:53:26.655Z,47
2023-02-19T11:58:33.855Z,30
2023-02-19T12:01:32.955Z,35
2023-02-19T12:03:27.975Z,53
2023-02-19T12:04:41.058Z,39
2023-02-19T12:05:51.609Z,39
2023-02-19T12:07:25.426Z,34
2023-02-19T12:08:42.839Z,38
2023-02-19T12:09:56.489Z,46
2023-02-19T12:11:26.695Z,36
2023-02-19T12:14:52.556Z,32
2023-02-19T12:16:05.976Z,30
2023-02-19T12:17:21.431Z,30
2023-02-19T12:19:38.442Z,32
2023-02-19T12:20:53.419Z,25
2023-02-19T12:22:08.158Z,32
2023-02-19T12:23:46.701Z,27
2023-02-19T12:25:06.689Z,27
2023-02-19T12:26:40.308Z,27
2023-02-19T12:27:57.404Z,33
2023-02-19T12:29:11.310Z,26
2023-02-19T12:30:28.736Z,31
2023-02-19T12:31:43.050Z,26
2023-02-19T12:33:36.011Z,25
2023-02-19T12:34:53.509Z,39
2023-02-19T12:36:20.080Z,41
2023-02-19T12:37:28.697Z,41
2023-02-19T12:38:48.276Z,56
2023-02-19T12:40:22.209Z,31
2023-02-19T12:41:37.333Z,33
2023-02-19T12:43:15.086Z,35
2023-02-19T12:44:24.510Z,36
2023-02-19T12:45:48.326Z,39
2023-02-19T12:47:38.368Z,33
2023-02-19T12:50:59.940Z,30
2023-02-19T12:52:18.951Z,25
2023-02-19T12:53:35.052Z,33
2023-02-19T12:56:04.977Z,32
2023-02-19T12:58:16.610Z,41
2023-02-19T13:00:29.108Z,33
2023-02-19T13:02:32.795Z,25
2023-02-19T13:03:48.573Z,27
2023-02-19T13:04:55.669Z,27
2023-02-19T13:07:16.950Z,25
2023-02-19T13:09:06.198Z,44
2023-02-19T13:10:55.451Z,32
2023-02-19T13:12:14.072Z,40
2023-02-19T13:14:26.824Z,35
2023-02-19T13:15:44.067Z,42
2023-02-19T13:16:51.658Z,33
2023-02-19T13:18:08.969Z,54
2023-02-19T13:19:38.872Z,61
2023-02-19T13:21:21.181Z,51
2023-02-19T13:22:50.064Z,69
2023-02-19T13:24:07.729Z,65
2023-02-19T13:25:21.288Z,56
2023-02-19T13:27:21.524Z,56
2023-02-19T13:28:36.311Z,65
2023-02-19T13:30:27.028Z,62
2023-02-19T13:33:13.751Z,62
2023-02-19T13:36:38.126Z,50
2023-02-19T13:38:07.959Z,60
2023-02-19T13:39:34.050Z,35
2023-02-19T13:40:46.866Z,29
2023-02-19T13:42:44.434Z,36
2023-02-19T13:44:04.420Z,25
2023-02-19T13:45:12.001Z,37
2023-02-19T13:46:19.449Z,32
2023-02-19T13:47:41.721Z,32
2023-02-19T13:49:01.970Z,28
2023-02-19T13:50:19.079Z,30
2023-02-19T13:51:35.349Z,37
2023-02-19T13:53:03.049Z,25
2023-02-19T13:54:15.838Z,28
2023-02-19T13:55:31.148Z,25
2023-02-19T13:57:02.900Z,47
2023-02-19T13:58:40.081Z,29
2023-02-19T14:00:12.264Z,26
2023-02-19T14:03:29.553Z,31
2023-02-19T14:06:06.897Z,31
2023-02-19T14:12:04.837Z,32
2023-02-19T14:14:28.224Z,33
2023-02-19T14:32:50.968Z,43
2023-02-19T14:36:42.679Z,30
2023-02-19T14:39:41.460Z,39
2023-02-19T14:43:13.214Z,41
2023-02-19T14:47:08.480Z,33
2023-02-19T14:59:14.335Z,38
2023-02-19T15:03:35.464Z,33
2023-02-19T15:05:38.936Z,33
2023-02-19T15:06:50.536Z,28
2023-02-19T15:32:05.521Z,53
2023-02-19T15:41:28.488Z,75
2023-02-19T15:53:42.415Z,81
2023-02-19T15:57:08.747Z,86
2023-02-19T16:01:32.925Z,78
2023-02-19T16:06:31.719Z,54
2023-02-19T16:13:17.702Z,59
2023-02-19T16:28:07.078Z,39
2023-02-19T16:30:06.271Z,37
2023-02-19T16:35:19.049Z,42
2023-02-19T16:39:31.436Z,37
2023-02-19T16:42:36.158Z,38
2023-02-19T16:48:46.252Z,40
2023-02-19T16:52:08.367Z,33
2023-02-19T16:56:10.063Z,44
2023-02-19T17:02:23.771Z,41
2023-02-19T17:06:01.187Z,35
2023-02-19T17:09:14.827Z,51
2023-02-19T17:10:27.675Z,51
2023-02-19T17:12:50.914Z,43
2023-02-19T17:14:07.021Z,50
2023-02-19T17:15:52.953Z,47
2023-02-19T17:17:05.339Z,48
2023-02-19T17:18:13.909Z,39
2023-02-19T17:19:22.549Z,40
2023-02-19T17:20:50.675Z,55
2023-02-19T17:22:05.384Z,44
2023-02-19T17:24:14.145Z,52
2023-02-19T17:25:21.866Z,42
2023-02-19T17:26:31.876Z,42
2023-02-19T17:27:39.018Z,54
2023-02-19T17:28:46.421Z,46
2023-02-19T17:29:53.781Z,58
2023-02-19T17:31:58.515Z,44
2023-02-19T17:33:09.204Z,49
2023-02-19T17:34:31.563Z,51
2023-02-19T17:36:18.678Z,45
2023-02-19T17:38:58.704Z,48
2023-02-19T17:40:08.741Z,42
2023-02-19T17:44:43.365Z,38
2023-02-19T17:49:46.952Z,42
2023-02-19T17:54:41.314Z,40
2023-02-19T18:00:44.962Z,39
2023-02-19T18:08:50.543Z,35
2023-02-19T18:14:34.648Z,43
2023-02-19T18:16:04.445Z,39
2023-02-19T18:19:29.573Z,51
2023-02-19T18:20:37.997Z,59
2023-02-19T18:21:46.948Z,61
2023-02-19T18:22:54.040Z,71
2023-02-19T18:24:08.589Z,72
2023-02-19T18:25:17.752Z,70
2023-02-19T18:26:25.062Z,76
2023-02-19T18:27:33.366Z,86
2023-02-19T18:28:50.016Z,79
2023-02-19T18:29:57.728Z,78
2023-02-19T18:31:07.558Z,65
2023-02-19T18:32:20.905Z,78
2023-02-19T18:33:29.576Z,73
2023-02-19T18:34:36.744Z,77
2023-02-19T18:35:43.834Z,70
2023-02-19T18:36:54.975Z,77
2023-02-19T18:38:04.936Z,69
2023-02-19T18:39:15.444Z,76
2023-02-19T18:40:23.261Z,72
2023-02-19T18:41:41.137Z,66
2023-02-19T18:42:51.891Z,68
2023-02-19T18:44:04.337Z,61
2023-02-19T18:45:13.721Z,59
2023-02-19T18:46:20.720Z,57
2023-02-19T18:47:29.482Z,50
2023-02-19T18:49:03.445Z,51
2023-02-19T18:51:35.057Z,64
2023-02-19T18:53:35.034Z,54
2023-02-19T18:57:49.112Z,51
2023-02-19T18:59:06.777Z,56
2023-02-19T19:01:17.784Z,49
2023-02-19T19:02:33.798Z,36
2023-02-19T19:03:50.767Z,40
2023-02-19T19:05:14.204Z,44
2023-02-19T19:11:59.592Z,42
2023-02-19T19:13:38.156Z,45
2023-02-19T19:17:14.788Z,31
2023-02-19T19:18:53.459Z,32
2023-02-19T19:22:58.570Z,54
2023-02-19T19:28:42.538Z,35
2023-02-19T19:29:50.308Z,39
2023-02-19T19:31:14.556Z,36
2023-02-19T19:32:28.518Z,40
2023-02-19T19:33:37.682Z,35
2023-02-19T19:39:31.461Z,38
2023-02-19T19:41:27.880Z,30
2023-02-19T19:43:24.087Z,27
2023-02-19T19:45:10.340Z,35
2023-02-19T19:46:21.223Z,32
2023-02-19T19:49:35.215Z,32
2023-02-19T19:56:48.787Z,42
2023-02-19T19:58:44.775Z,34
2023-02-19T20:01:31.873Z,34
2023-02-19T20:02:39.838Z,37
2023-02-19T20:03:55.267Z,27
2023-02-19T20:05:11.227Z,26
2023-02-19T20:06:24.038Z,29
2023-02-19T20:08:11.655Z,25
2023-02-19T20:11:46.067Z,25
2023-02-19T20:12:59.358Z,36
2023-02-19T20:14:11.641Z,28
2023-02-19T20:15:36.910Z,25
2023-02-19T20:18:28.658Z,40
2023-02-19T20:20:33.111Z,31
2023-02-19T20:22:01.509Z,32
2023-02-19T20:23:11.404Z,30
2023-02-19T20:25:23.098Z,37
2023-02-19T20:26:31.324Z,30
2023-02-19T20:27:43.451Z,25
2023-02-19T20:28:56.520Z,30
2023-02-19T20:30:04.261Z,25
2023-02-19T20:33:11.197Z,30
2023-02-19T20:34:45.303Z,27
2023-02-19T20:36:34.817Z,32
2023-02-19T20:37:57.079Z,36
2023-02-19T20:43:19.463Z,25
2023-02-19T20:45:10.816Z,31
2023-02-19T20:48:58.036Z,31
2023-02-19T20:50:09.537Z,27
2023-02-19T20:51:31.209Z,33
2023-02-19T20:55:53.467Z,33
2023-02-19T20:57:18.823Z,34
2023-02-19T20:58:57.197Z,33
2023-02-19T21:00:27.377Z,28
2023-02-19T21:02:23.323Z,34
2023-02-19T21:04:13.571Z,28
2023-02-19T21:05:33.761Z,31
2023-02-19T21:09:55.324Z,34
2023-02-19T21:11:29.932Z,39
2023-02-19T21:13:16.083Z,39
2023-02-19T21:14:38.616Z,35
2023-02-19T21:16:52.100Z,33
2023-02-19T21:18:02.884Z,33
2023-02-19T21:20:18.863Z,39
2023-02-19T21:22:36.837Z,33
2023-02-19T21:24:46.832Z,39
2023-02-19T21:27:24.787Z,33
2023-02-19T21:29:32.941Z,38
2023-02-19T21:34:08.548Z,36
2023-02-19T21:36:04.527Z,34
2023-02-19T21:38:51.926Z,49
2023-02-19T21:40:37.044Z,37
2023-02-19T21:42:40.319Z,34
2023-02-19T21:45:58.811Z,37
2023-02-19T21:52:21.656Z,31
2023-02-19T21:53:50.839Z,31
2023-02-19T21:57:56.061Z,32
2023-02-19T22:02:02.305Z,35
2023-02-19T22:03:46.513Z,36
2023-02-19T22:11:13.793Z,39
2023-02-19T22:14:04.540Z,37
2023-02-19T22:15:37.617Z,38
2023-02-19T22:19:45.515Z,39
2023-02-19T22:21:14.900Z,34
2023-02-19T22:25:03.695Z,44
2023-02-19T22:26:21.084Z,34
2023-02-19T22:35:55.039Z,32
2023-02-19T22:41:33.865Z,29
2023-02-19T22:43:59.008Z,29
2023-02-19T22:49:13.676Z,33
2023-02-19T22:52:10.124Z,36
2023-02-19T22:53:21.980Z,38
2023-02-19T22:55:08.221Z,33
2023-02-19T22:58:27.680Z,36
2023-02-19T23:02:33.004Z,52
2023-02-19T23:06:56.440Z,34
2023-02-19T23:11:17.405Z,30
2023-02-19T23:12:29.170Z,25
2023-02-19T23:17:44.012Z,28
2023-02-19T23:19:47.871Z,28
2023-02-19T23:24:31.136Z,28
2023-02-19T23:26:15.361Z,31
2023-02-19T23:34:34.698Z,31
2023-02-19T23:35:55.958Z,28
2023-02-19T23:37:44.301Z,26
2023-02-19T23:45:13.274Z,33
2023-02-19T23:48:15.761Z,31
2023-02-19T23:52:54.184Z,33
